• Join FlightAware (Why Join?)
  • Login
  • US Flag 
05:00PM EDT


 

Airport Tracker/Info


-or-


 

Live Flight TrackerFlight Track Log ✈ UCA3596 ✈ 13-Jan-2014 ✈ KIAD - KBGM

Flight Track Log - Related Links

Times and Time Zones

All times are in EST time to prevent confusion due to time zone crossing. See the UCA3596 flight status page for this flight to view local times or setup timezone preferences in your user account.

Time Position Orientation Groundspeed Altitude Reporting Facility
EST Latitude Longitude Course Direction KTS MPH feet Rate Location/Type
01:28PM 40.2061 -76.9065 19° North  Level Estimated
01:29PM 40.2564 -76.8840 19° North  Level Estimated
01:30PM 40.3067 -76.8614 19° North  Level Estimated
01:31PM 40.3570 -76.8388 19° North  Level Estimated
01:32PM 40.4073 -76.8161 19° North  Level Estimated
01:33PM 40.4575 -76.7934 19° North  Level Estimated
01:34PM 40.5078 -76.7707 19° North  Level Estimated
01:35PM 40.5581 -76.7479 19° North  Level Estimated
01:36PM 40.6083 -76.7251 19° North  Level Estimated
01:37PM 40.6586 -76.7023 19° North  Level Estimated
01:38PM 40.7089 -76.6794 19° North  Level Estimated
01:39PM 40.7591 -76.6565 19° North  Level Estimated
01:40PM 40.8093 -76.6336 19° North  Level Estimated
01:41PM 40.8596 -76.6106 19° North  Level Estimated
01:42PM 40.9098 -76.5876 19° North  Level Estimated
01:43PM 40.9600 -76.5645 19° North  Level Estimated
01:44PM 41.0103 -76.5415 19° North  Level Estimated
01:45PM 41.0605 -76.5183 19° North  Level Estimated
01:46PM 41.1107 -76.4952 19° North  Level Estimated
01:47PM 41.1609 -76.4720 19° North  Level Estimated
01:48PM 41.2111 -76.4488 19° North  Level Estimated
01:49PM 41.2613 -76.4256 19° North  Level Estimated
01:50PM 41.3115 -76.4023 19° North  Level Estimated
01:51PM 41.3617 -76.3789 19° North  Level Estimated
01:52PM 41.4119 -76.3556 19° North  Level Estimated
01:53PM 41.4621 -76.3322 19° North  Level Estimated
01:54PM 41.5123 -76.3087 19° North  Level Estimated
01:55PM 41.5624 -76.2853 19° North  Level Estimated
01:56PM 41.6126 -76.2618 19° North  Level Estimated
01:57PM 41.6628 -76.2382 19° North  Level Estimated
01:58PM 41.7129 -76.2147 19° North  Level Estimated
01:59PM 41.7631 -76.1910 19° North  Level Estimated
02:00PM 41.8132 -76.1674 19° North  Level Estimated
02:01PM 41.8634 -76.1437 19° North  Level Estimated
02:02PM 41.9135 -76.1200 19° North  Level Estimated
02:03PM 41.9636 -76.0962 19° North  Level Estimated
02:04PM 42.0138 -76.0724 19° North  Level Estimated
02:05PM 42.0639 -76.0486 19° North  Level Estimated
02:06PM 42.1140 -76.0247 19° North  Level Estimated
02:07PM 42.1641 -76.0008 19° North  Level Estimated
02:08PM 42.2084 -75.9796 19° North  Level Estimated
02:09PM 42.2084 -75.9796 35° Northeast  Level Estimated
02:10PM 42.2084 -75.9796 35° Northeast  Level Estimated
02:11PM 42.2084 -75.9796 35° Northeast  Level Estimated
02:12PM 42.2084 -75.9796 35° Northeast  Level Estimated
02:13PM 42.2084 -75.9796 35° Northeast  Level Estimated
02:14PM 42.2084 -75.9796 35° Northeast  Level Estimated
02:15PM 42.2084 -75.9796 35° Northeast  Level Estimated
02:16PM 42.2084 -75.9796 35° Northeast  Level Estimated
02:17PM 42.2084 -75.9796 35° Northeast  Level Estimated
02:18PM 42.2084 -75.9796 35° Northeast  Level Estimated
02:19PM 42.2084 -75.9796 35° Northeast  Level Estimated
02:20PM 42.2084 -75.9796 35° Northeast  Level Estimated
02:21PM 42.2084 -75.9796 35° Northeast  Level Estimated
02:22PM 42.2084 -75.9796 35° Northeast  Level Estimated
02:23PM 42.2084 -75.9796 35° Northeast  Level Estimated